Schedule Details


Flight Number: CTN416
Departure: Franjo Tudman (LDZA) at 08:45
Arrival: Frankfurt/main (EDDF) at 10:20
Route: OBUTI UM19 GRZ DCT SUBEN T161 PSA

Weather Information
LDZA 290130Z 01004KT 340V080 9999 -SHRA BKN009 FEW030TCU 02/01 Q1010 TEMPO -TSRA FEW040CB
EDDF 290150Z 21010KT 9999 FEW012 SCT029 02/01 Q1003 NOSIG
Schedule Frequency

Route Map